createdAt,value
2023-05-05T00:01:16.074Z,63.35
2023-05-05T00:03:44.809Z,63.33
2023-05-05T00:06:14.994Z,63.77
2023-05-05T00:08:43.511Z,63.75
2023-05-05T00:11:12.088Z,64.09
2023-05-05T00:13:40.772Z,64.35
2023-05-05T00:16:09.737Z,64.39
2023-05-05T00:18:38.206Z,63.99
2023-05-05T00:21:06.967Z,64.64
2023-05-05T00:23:36.938Z,64.45
2023-05-05T00:26:05.429Z,64.75
2023-05-05T00:28:33.930Z,64.66
2023-05-05T00:31:02.456Z,64.48
2023-05-05T00:33:30.846Z,64.65
2023-05-05T00:35:59.452Z,64.51
2023-05-05T00:38:28.096Z,64.86
2023-05-05T00:40:58.778Z,64.91
2023-05-05T00:43:28.108Z,64.80
2023-05-05T00:46:05.682Z,65.08
2023-05-05T00:48:34.595Z,65.05
2023-05-05T00:51:03.048Z,65.51
2023-05-05T00:53:31.752Z,65.41
2023-05-05T00:56:02.116Z,65.40
2023-05-05T00:58:31.796Z,65.48
2023-05-05T01:01:00.138Z,65.89
2023-05-05T01:03:28.726Z,65.52
2023-05-05T01:06:18.809Z,65.74
2023-05-05T01:09:04.457Z,65.68
2023-05-05T01:11:44.092Z,65.71
2023-05-05T01:14:17.290Z,65.97
2023-05-05T01:16:58.587Z,65.95
2023-05-05T01:19:56.589Z,65.93
2023-05-05T01:22:29.630Z,66.21
2023-05-05T01:25:39.576Z,65.94
2023-05-05T01:28:28.204Z,65.84
2023-05-05T01:31:25.001Z,65.75
2023-05-05T01:34:01.709Z,65.82
2023-05-05T01:36:38.471Z,65.78
2023-05-05T01:39:10.122Z,65.58
2023-05-05T01:41:44.475Z,65.74
2023-05-05T01:44:14.915Z,65.39
2023-05-05T01:46:43.310Z,65.35
2023-05-05T01:49:14.626Z,65.21
2023-05-05T01:51:43.910Z,65.21
2023-05-05T01:54:12.628Z,65.04
2023-05-05T01:56:42.444Z,65.00
2023-05-05T01:59:12.726Z,65.10
2023-05-05T02:01:44.728Z,65.30
2023-05-05T02:04:16.493Z,65.13
2023-05-05T02:06:47.598Z,65.13
2023-05-05T02:09:16.572Z,65.20
2023-05-05T02:11:45.292Z,64.93
2023-05-05T02:14:15.053Z,65.02
2023-05-05T02:16:44.583Z,64.91
2023-05-05T02:19:16.338Z,65.06
2023-05-05T02:21:45.046Z,65.14
2023-05-05T02:24:13.560Z,64.99
2023-05-05T02:26:45.942Z,65.06
2023-05-05T02:29:19.702Z,64.98
2023-05-05T02:31:52.535Z,65.00
2023-05-05T02:34:27.747Z,65.29
2023-05-05T02:36:59.908Z,64.72
2023-05-05T02:39:34.378Z,64.71
2023-05-05T02:42:05.495Z,64.35
2023-05-05T02:44:36.072Z,64.51
2023-05-05T02:47:05.221Z,64.22
2023-05-05T02:49:35.086Z,64.14
2023-05-05T02:52:03.514Z,64.32
2023-05-05T02:54:33.946Z,64.09
2023-05-05T02:57:02.866Z,63.90
2023-05-05T02:59:39.632Z,63.81
2023-05-05T03:02:18.644Z,63.69
2023-05-05T03:04:52.952Z,63.92
2023-05-05T03:07:29.008Z,63.69
2023-05-05T03:10:05.556Z,64.00
2023-05-05T03:12:40.041Z,63.82
2023-05-05T03:15:11.216Z,63.94
2023-05-05T03:17:42.272Z,63.49
2023-05-05T03:20:15.281Z,63.82
2023-05-05T03:22:43.637Z,63.75
2023-05-05T03:25:12.436Z,64.03
2023-05-05T03:27:40.786Z,64.14
2023-05-05T03:30:11.017Z,64.27
2023-05-05T03:32:39.615Z,64.37
2023-05-05T03:35:08.884Z,65.13
2023-05-05T03:37:38.898Z,64.56
2023-05-05T03:40:09.527Z,64.76
2023-05-05T03:42:38.106Z,65.08
2023-05-05T03:45:07.886Z,65.02
2023-05-05T03:47:36.703Z,65.08
2023-05-05T03:50:05.725Z,65.27
2023-05-05T03:52:38.277Z,65.58
2023-05-05T03:55:09.401Z,65.55
2023-05-05T03:57:37.832Z,65.40
2023-05-05T04:00:11.950Z,65.47
2023-05-05T04:02:40.342Z,65.27
2023-05-05T04:05:09.390Z,65.09
2023-05-05T04:07:38.526Z,65.30
2023-05-05T04:10:11.076Z,64.90
2023-05-05T04:12:39.534Z,64.84
2023-05-05T04:15:11.888Z,64.53
2023-05-05T04:17:40.230Z,64.53
2023-05-05T04:20:09.953Z,64.04
2023-05-05T04:22:38.997Z,63.97
2023-05-05T04:25:09.495Z,63.48
2023-05-05T04:27:38.076Z,63.32
2023-05-05T04:30:09.727Z,63.39
2023-05-05T04:32:38.441Z,63.20
2023-05-05T04:35:08.583Z,62.99
2023-05-05T04:37:37.133Z,63.07
2023-05-05T04:40:08.539Z,63.05
2023-05-05T04:42:38.896Z,63.02
2023-05-05T04:45:09.728Z,63.31
2023-05-05T04:47:41.699Z,63.69
2023-05-05T04:50:12.126Z,63.61
2023-05-05T04:52:41.004Z,63.95
2023-05-05T04:55:11.787Z,64.51
2023-05-05T04:57:41.561Z,64.47
2023-05-05T05:00:11.791Z,65.33
2023-05-05T05:02:40.257Z,66.29
2023-05-05T05:05:10.614Z,66.58
2023-05-05T05:07:40.093Z,66.81
2023-05-05T05:10:21.629Z,67.06
2023-05-05T05:12:51.332Z,67.19
2023-05-05T05:15:20.116Z,67.32
2023-05-05T05:17:48.930Z,67.77
2023-05-05T05:20:17.329Z,67.66
2023-05-05T05:22:46.410Z,67.73
2023-05-05T05:25:15.081Z,67.86
2023-05-05T05:27:43.543Z,67.89
2023-05-05T05:30:14.738Z,68.19
2023-05-05T05:32:44.042Z,68.36
2023-05-05T05:35:12.434Z,68.74
2023-05-05T05:37:41.755Z,69.38
2023-05-05T05:40:11.789Z,70.28
2023-05-05T05:42:42.274Z,70.90
2023-05-05T05:45:12.938Z,70.69
2023-05-05T05:47:42.257Z,70.98
2023-05-05T05:50:11.540Z,71.35
2023-05-05T05:52:40.106Z,71.73
2023-05-05T05:55:10.410Z,71.54
2023-05-05T05:57:38.771Z,71.60
2023-05-05T06:00:09.284Z,72.23
2023-05-05T06:02:39.806Z,71.68
2023-05-05T06:05:08.928Z,72.08
2023-05-05T06:07:37.388Z,71.19
2023-05-05T06:10:22.661Z,71.14
2023-05-05T06:12:55.279Z,71.45
2023-05-05T06:15:23.626Z,70.80
2023-05-05T06:17:53.486Z,70.55
2023-05-05T06:20:22.286Z,70.56
2023-05-05T06:22:50.886Z,70.42
2023-05-05T06:25:19.597Z,70.49
2023-05-05T06:27:48.508Z,70.06
2023-05-05T06:30:17.918Z,70.09
2023-05-05T06:32:46.517Z,69.36
2023-05-05T06:35:16.969Z,69.35
2023-05-05T06:37:45.990Z,69.57
2023-05-05T06:40:14.655Z,69.05
2023-05-05T06:42:43.051Z,69.14
2023-05-05T06:45:12.674Z,69.76
2023-05-05T06:47:41.063Z,69.46
2023-05-05T06:50:11.165Z,69.40
2023-05-05T06:52:41.289Z,69.19
2023-05-05T06:55:10.823Z,69.49
2023-05-05T06:57:39.152Z,69.58
2023-05-05T07:00:11.414Z,68.63
2023-05-05T07:02:40.252Z,68.80
2023-05-05T07:05:09.061Z,67.88
2023-05-05T07:07:38.330Z,68.54
2023-05-05T07:10:10.098Z,67.56
2023-05-05T07:12:38.665Z,67.63
2023-05-05T07:15:23.524Z,67.54
2023-05-05T07:17:56.016Z,66.84
2023-05-05T07:20:25.215Z,67.18
2023-05-05T07:22:53.769Z,66.81
2023-05-05T07:25:23.767Z,66.82
2023-05-05T07:27:52.468Z,66.71
2023-05-05T07:30:21.472Z,66.99
2023-05-05T07:32:51.199Z,67.86
2023-05-05T07:35:20.075Z,67.68
2023-05-05T07:37:48.726Z,66.86
2023-05-05T07:40:17.291Z,67.34
2023-05-05T07:42:48.420Z,67.33
2023-05-05T07:45:16.771Z,67.45
2023-05-05T07:47:45.694Z,67.21
2023-05-05T07:50:14.181Z,66.97
2023-05-05T07:52:49.893Z,66.58
2023-05-05T07:55:22.558Z,65.75
2023-05-05T07:57:52.492Z,65.80
2023-05-05T08:00:25.800Z,66.20
2023-05-05T08:02:54.364Z,65.49
2023-05-05T08:05:22.911Z,65.73
2023-05-05T08:07:51.217Z,65.63
2023-05-05T08:10:20.047Z,65.82
2023-05-05T08:12:48.516Z,65.36
2023-05-05T08:15:18.603Z,64.95
2023-05-05T08:17:49.167Z,64.48
2023-05-05T08:20:21.669Z,63.73
2023-05-05T08:22:51.702Z,63.50
2023-05-05T08:25:21.267Z,63.47
2023-05-05T08:27:50.005Z,63.43
2023-05-05T08:30:21.467Z,63.29
2023-05-05T08:32:50.159Z,63.00
2023-05-05T08:35:20.409Z,61.86
2023-05-05T08:37:48.721Z,61.74
2023-05-05T08:40:17.052Z,61.60
2023-05-05T08:42:46.417Z,61.42
2023-05-05T08:45:14.865Z,61.13
2023-05-05T08:47:44.857Z,60.44
2023-05-05T08:50:14.120Z,59.83
2023-05-05T08:52:45.164Z,59.62
2023-05-05T08:55:26.214Z,59.24
2023-05-05T08:57:57.970Z,59.15
2023-05-05T09:00:27.825Z,59.31
2023-05-05T09:02:59.634Z,58.39
2023-05-05T09:05:29.130Z,57.73
2023-05-05T09:07:57.737Z,58.33
2023-05-05T09:10:30.528Z,57.62
2023-05-05T09:12:59.869Z,57.05
2023-05-05T09:15:29.060Z,56.34
2023-05-05T09:17:59.440Z,57.13
2023-05-05T09:20:36.090Z,57.38
2023-05-05T09:23:12.022Z,56.51
2023-05-05T09:25:41.246Z,56.12
2023-05-05T09:28:11.885Z,55.82
2023-05-05T09:30:41.953Z,55.68
2023-05-05T09:33:12.362Z,55.20
2023-05-05T09:35:53.471Z,55.87
2023-05-05T09:38:23.684Z,55.16
2023-05-05T09:40:57.259Z,54.02
2023-05-05T09:43:26.339Z,54.18
2023-05-05T09:46:08.345Z,53.98
2023-05-05T09:48:42.776Z,53.56
2023-05-05T09:51:11.349Z,54.03
2023-05-05T09:53:42.378Z,53.42
2023-05-05T09:56:11.439Z,52.79
2023-05-05T09:58:40.405Z,52.45
2023-05-05T10:01:24.366Z,52.53
2023-05-05T10:03:54.907Z,52.38
2023-05-05T10:06:42.786Z,51.91
2023-05-05T10:09:11.361Z,52.14
2023-05-05T10:11:42.552Z,50.33
2023-05-05T10:14:15.794Z,50.72
2023-05-05T10:16:50.943Z,49.86
2023-05-05T10:19:25.203Z,49.04
2023-05-05T10:22:09.076Z,48.52
2023-05-05T10:24:45.655Z,47.94
2023-05-05T10:27:17.608Z,47.72
2023-05-05T10:29:53.944Z,46.86
2023-05-05T10:32:51.992Z,46.26
2023-05-05T10:35:25.009Z,45.82
2023-05-05T10:37:55.690Z,45.07
2023-05-05T10:40:25.133Z,45.44
2023-05-05T10:42:56.111Z,45.26
2023-05-05T10:45:24.971Z,45.86
2023-05-05T10:47:55.532Z,44.83
2023-05-05T10:50:34.781Z,45.74
2023-05-05T10:53:20.163Z,44.75
2023-05-05T10:55:57.989Z,45.52
2023-05-05T10:58:51.020Z,44.79
2023-05-05T11:01:33.708Z,44.90
2023-05-05T11:04:21.985Z,44.59
2023-05-05T11:10:03.141Z,44.63
2023-05-05T11:12:32.818Z,44.00
2023-05-05T11:15:38.714Z,44.05
2023-05-05T11:18:08.613Z,43.26
2023-05-05T11:21:18.779Z,43.03
2023-05-05T11:23:50.248Z,42.86
2023-05-05T11:26:51.136Z,43.56
2023-05-05T11:29:19.790Z,43.87
2023-05-05T11:32:15.690Z,43.81
2023-05-05T11:34:51.194Z,43.62
2023-05-05T11:37:23.967Z,42.80
2023-05-05T11:40:04.776Z,42.45
2023-05-05T11:42:34.727Z,42.24
2023-05-05T11:45:23.364Z,41.58
2023-05-05T11:47:52.413Z,41.05
2023-05-05T11:50:25.111Z,40.27
2023-05-05T11:52:53.511Z,40.54
2023-05-05T11:55:25.065Z,40.05
2023-05-05T11:57:55.272Z,40.07
2023-05-05T12:00:35.124Z,40.32
2023-05-05T12:03:03.660Z,40.11
2023-05-05T12:05:35.751Z,40.18
2023-05-05T12:08:05.459Z,40.09
2023-05-05T12:10:34.019Z,40.53
2023-05-05T12:13:03.764Z,40.60
2023-05-05T12:15:33.840Z,40.45
2023-05-05T12:18:03.215Z,40.80
2023-05-05T12:20:35.155Z,41.14
2023-05-05T12:23:04.835Z,41.05
2023-05-05T12:25:38.368Z,41.24
2023-05-05T12:28:09.520Z,40.57
2023-05-05T12:30:38.322Z,39.61
2023-05-05T12:33:08.634Z,39.05
2023-05-05T12:35:37.839Z,39.12
2023-05-05T12:38:06.183Z,39.05
2023-05-05T12:40:48.475Z,38.65
2023-05-05T12:43:31.255Z,38.63
2023-05-05T12:46:09.028Z,39.24
2023-05-05T12:48:39.166Z,39.08
2023-05-05T12:51:20.185Z,39.14
2023-05-05T12:53:50.507Z,40.19
2023-05-05T12:56:37.577Z,40.68
2023-05-05T12:59:10.393Z,41.58
2023-05-05T13:01:51.639Z,42.23
2023-05-05T13:04:23.465Z,43.33
2023-05-05T13:07:11.791Z,44.02
2023-05-05T13:09:41.042Z,48.36
2023-05-05T13:12:12.188Z,53.96
2023-05-05T13:14:42.953Z,59.10
2023-05-05T13:17:11.832Z,63.85
2023-05-05T13:19:46.033Z,65.90
2023-05-05T13:22:15.281Z,68.72
2023-05-05T13:25:07.289Z,70.95
2023-05-05T13:27:35.001Z,72.37
2023-05-05T13:30:08.531Z,72.79
2023-05-05T13:32:36.791Z,72.77
2023-05-05T13:35:06.304Z,73.60
2023-05-05T13:37:35.102Z,74.79
2023-05-05T13:40:03.600Z,75.14
2023-05-05T13:42:33.304Z,75.89
2023-05-05T13:45:01.657Z,76.31
2023-05-05T13:47:31.960Z,76.66
2023-05-05T13:50:00.849Z,77.64
2023-05-05T13:52:31.620Z,78.27
2023-05-05T13:55:01.964Z,79.67
2023-05-05T13:57:30.438Z,80.76
2023-05-05T13:59:59.976Z,81.31
2023-05-05T14:02:33.855Z,81.66
2023-05-05T14:05:03.382Z,82.28
2023-05-05T14:07:39.229Z,82.95
2023-05-05T14:10:10.548Z,83.62
2023-05-05T14:12:45.536Z,84.17
2023-05-05T14:15:14.291Z,84.55
2023-05-05T14:17:45.086Z,84.66
2023-05-05T14:20:14.288Z,85.13
2023-05-05T14:22:43.266Z,85.68
2023-05-05T14:25:11.806Z,85.62
2023-05-05T14:27:40.657Z,86.32
2023-05-05T14:30:10.736Z,86.07
2023-05-05T14:32:42.065Z,86.92
2023-05-05T14:35:14.346Z,87.34
2023-05-05T14:37:43.403Z,87.39
2023-05-05T14:40:12.339Z,86.82
2023-05-05T14:42:41.109Z,87.19
2023-05-05T14:45:11.267Z,88.14
2023-05-05T14:47:41.451Z,87.83
2023-05-05T14:50:14.273Z,88.56
2023-05-05T14:52:44.443Z,88.25
2023-05-05T14:55:12.903Z,88.69
2023-05-05T14:57:41.560Z,89.08
2023-05-05T15:00:11.992Z,89.06
2023-05-05T15:02:41.724Z,89.25
2023-05-05T15:05:11.920Z,89.12
2023-05-05T15:07:40.559Z,89.61
2023-05-05T15:10:09.926Z,89.59
2023-05-05T15:12:38.993Z,89.54
2023-05-05T15:15:13.475Z,89.64
2023-05-05T15:17:42.020Z,90.21
2023-05-05T15:20:14.305Z,90.66
2023-05-05T15:22:42.796Z,90.49
2023-05-05T15:25:14.861Z,90.51
2023-05-05T15:27:43.970Z,90.37
2023-05-05T15:30:14.269Z,90.49
2023-05-05T15:32:43.144Z,90.72
2023-05-05T15:35:13.292Z,90.79
2023-05-05T15:37:42.619Z,90.80
2023-05-05T15:40:12.640Z,91.20
2023-05-05T15:42:41.146Z,91.31
2023-05-05T15:45:12.528Z,91.29
2023-05-05T15:47:40.847Z,91.58
2023-05-05T15:50:10.616Z,90.91
2023-05-05T15:52:40.620Z,91.49
2023-05-05T15:55:11.014Z,91.21
2023-05-05T15:57:40.460Z,91.85
2023-05-05T16:00:10.375Z,91.25
2023-05-05T16:02:39.855Z,91.27
2023-05-05T16:05:09.462Z,91.84
2023-05-05T16:07:40.276Z,92.10
2023-05-05T16:10:10.741Z,92.21
2023-05-05T16:12:39.284Z,91.32
2023-05-05T16:15:09.386Z,91.78
2023-05-05T16:17:38.110Z,91.63
2023-05-05T16:20:07.871Z,91.45
2023-05-05T16:22:37.142Z,91.85
2023-05-05T16:25:08.778Z,91.46
2023-05-05T16:27:37.696Z,91.91
2023-05-05T16:30:08.617Z,92.02
2023-05-05T16:32:39.114Z,91.48
2023-05-05T16:35:09.383Z,91.22
2023-05-05T16:37:38.104Z,90.58
2023-05-05T16:40:10.122Z,90.06
2023-05-05T16:42:38.764Z,89.90
2023-05-05T16:45:10.072Z,90.29
2023-05-05T16:47:38.556Z,90.96
2023-05-05T16:50:08.628Z,90.69
2023-05-05T16:52:36.950Z,90.34
2023-05-05T16:55:07.780Z,90.15
2023-05-05T16:57:36.288Z,89.88
2023-05-05T17:00:05.353Z,90.33
2023-05-05T17:02:33.813Z,86.73
2023-05-05T17:05:02.190Z,82.21
2023-05-05T17:07:30.580Z,81.12
2023-05-05T17:09:59.266Z,81.10
2023-05-05T17:12:29.093Z,78.90
2023-05-05T17:14:57.709Z,78.61
2023-05-05T17:17:26.388Z,79.09
2023-05-05T17:19:58.470Z,79.54
2023-05-05T17:22:27.324Z,80.69
2023-05-05T17:24:56.213Z,81.57
2023-05-05T17:27:25.240Z,81.44
2023-05-05T17:29:55.178Z,81.29
2023-05-05T17:32:23.725Z,81.29
2023-05-05T17:34:52.424Z,81.70
2023-05-05T17:37:22.740Z,82.23
2023-05-05T17:39:51.439Z,82.76
2023-05-05T17:42:22.950Z,83.20
2023-05-05T17:44:51.476Z,83.39
2023-05-05T17:47:22.519Z,83.24
2023-05-05T17:49:51.508Z,83.13
2023-05-05T17:52:20.141Z,83.20
2023-05-05T17:54:48.810Z,83.46
2023-05-05T17:57:18.844Z,84.21
2023-05-05T17:59:47.231Z,84.09
2023-05-05T18:02:15.676Z,84.09
2023-05-05T18:04:45.880Z,84.55
2023-05-05T18:07:15.666Z,84.69
2023-05-05T18:09:44.714Z,84.40
2023-05-05T18:12:13.247Z,83.48
2023-05-05T18:14:42.606Z,82.94
2023-05-05T18:17:10.918Z,80.89
2023-05-05T18:19:42.907Z,80.77
2023-05-05T18:22:12.928Z,81.73
2023-05-05T18:24:41.275Z,82.38
2023-05-05T18:27:09.649Z,82.92
2023-05-05T18:29:37.992Z,83.18
2023-05-05T18:32:07.474Z,83.29
2023-05-05T18:34:35.933Z,83.38
2023-05-05T18:37:04.494Z,83.36
2023-05-05T18:39:34.371Z,83.36
2023-05-05T18:42:03.954Z,83.26
2023-05-05T18:44:34.845Z,83.32
2023-05-05T18:47:03.299Z,83.75
2023-05-05T18:49:31.838Z,83.58
2023-05-05T18:52:00.959Z,84.53
2023-05-05T18:54:31.009Z,84.92
2023-05-05T18:57:01.178Z,84.86
2023-05-05T18:59:29.869Z,85.49
2023-05-05T19:01:59.456Z,85.43
2023-05-05T19:04:31.750Z,85.86
2023-05-05T19:07:00.477Z,86.73
2023-05-05T19:09:29.010Z,87.06
2023-05-05T19:11:57.925Z,87.04
2023-05-05T19:14:28.577Z,87.11
2023-05-05T19:16:59.100Z,87.59
2023-05-05T19:19:28.144Z,88.32
2023-05-05T19:21:56.863Z,88.37
2023-05-05T19:24:25.440Z,88.26
2023-05-05T19:26:56.396Z,89.04
2023-05-05T19:29:24.983Z,88.79
2023-05-05T19:31:55.271Z,89.63
2023-05-05T19:34:23.822Z,89.23
2023-05-05T19:36:52.832Z,89.51
2023-05-05T19:39:21.663Z,89.84
2023-05-05T19:41:50.436Z,90.13
2023-05-05T19:44:18.906Z,90.71
2023-05-05T19:46:47.725Z,90.54
2023-05-05T19:49:17.556Z,90.38
2023-05-05T19:51:50.385Z,90.64
2023-05-05T19:54:19.492Z,90.88
2023-05-05T19:56:48.191Z,90.94
2023-05-05T19:59:16.756Z,91.42
2023-05-05T20:01:45.185Z,91.43
2023-05-05T20:04:13.630Z,90.75
2023-05-05T20:06:43.404Z,91.55
2023-05-05T20:09:11.853Z,91.24
2023-05-05T20:11:40.402Z,91.32
2023-05-05T20:14:08.868Z,91.71
2023-05-05T20:16:37.411Z,91.60
2023-05-05T20:19:06.222Z,91.54
2023-05-05T20:21:36.085Z,91.99
2023-05-05T20:24:06.927Z,92.00
2023-05-05T20:26:35.354Z,92.17
2023-05-05T20:29:03.840Z,91.88
2023-05-05T20:31:32.313Z,92.15
2023-05-05T20:34:00.764Z,92.12
2023-05-05T20:36:29.230Z,91.93
2023-05-05T20:38:57.980Z,92.24
2023-05-05T20:41:29.347Z,92.31
2023-05-05T20:43:57.987Z,92.65
2023-05-05T20:46:26.922Z,92.57
2023-05-05T20:48:55.450Z,92.59
2023-05-05T20:51:24.345Z,92.84
2023-05-05T20:53:53.798Z,93.02
2023-05-05T20:56:22.597Z,93.05
2023-05-05T20:58:52.906Z,93.31
2023-05-05T21:01:21.795Z,93.42
2023-05-05T21:03:50.558Z,93.30
2023-05-05T21:06:20.140Z,93.19
2023-05-05T21:08:49.306Z,93.16
2023-05-05T21:11:17.722Z,93.59
2023-05-05T21:13:46.191Z,93.45
2023-05-05T21:16:15.913Z,93.81
2023-05-05T21:18:46.750Z,93.70
2023-05-05T21:21:15.153Z,93.24
2023-05-05T21:23:43.556Z,93.67
2023-05-05T21:26:11.923Z,93.79
2023-05-05T21:28:40.284Z,93.25
2023-05-05T21:31:21.987Z,93.09
2023-05-05T21:33:52.823Z,93.51
2023-05-05T21:36:21.838Z,92.98
2023-05-05T21:38:51.455Z,93.14
2023-05-05T21:41:19.826Z,93.61
2023-05-05T21:43:48.432Z,93.71
2023-05-05T21:46:17.836Z,93.73
2023-05-05T21:48:48.411Z,93.29
2023-05-05T21:51:18.542Z,93.88
2023-05-05T21:53:46.960Z,93.55
2023-05-05T21:56:15.350Z,93.43
2023-05-05T21:58:43.853Z,93.98
2023-05-05T22:01:13.346Z,93.82
2023-05-05T22:03:43.769Z,93.38
2023-05-05T22:06:12.422Z,93.71
2023-05-05T22:08:42.346Z,93.69
2023-05-05T22:11:10.889Z,94.04
2023-05-05T22:13:40.916Z,94.20
2023-05-05T22:16:10.932Z,93.48
2023-05-05T22:18:39.422Z,93.83
2023-05-05T22:21:08.506Z,93.92
2023-05-05T22:23:39.087Z,93.98
2023-05-05T22:26:09.296Z,93.86
2023-05-05T22:28:38.622Z,93.90
2023-05-05T22:31:07.289Z,93.69
2023-05-05T22:33:36.225Z,93.81
2023-05-05T22:36:05.043Z,94.08
2023-05-05T22:38:33.447Z,93.78
2023-05-05T22:41:02.086Z,94.21
2023-05-05T22:43:32.168Z,94.01
2023-05-05T22:46:01.259Z,94.11
2023-05-05T22:48:29.570Z,94.08
2023-05-05T22:50:58.260Z,94.61
2023-05-05T22:53:26.881Z,94.37
2023-05-05T22:55:55.653Z,94.51
2023-05-05T22:58:26.753Z,94.39
2023-05-05T23:00:56.675Z,94.49
2023-05-05T23:03:25.709Z,94.26
2023-05-05T23:05:54.191Z,94.30
2023-05-05T23:08:24.706Z,94.01
2023-05-05T23:10:54.550Z,94.06
2023-05-05T23:13:25.887Z,93.95
2023-05-05T23:15:55.807Z,94.32
2023-05-05T23:18:24.419Z,94.21
2023-05-05T23:20:53.157Z,94.46
2023-05-05T23:23:21.929Z,94.02
2023-05-05T23:25:51.594Z,94.37
2023-05-05T23:28:20.674Z,94.11
2023-05-05T23:30:49.246Z,94.34
2023-05-05T23:33:19.610Z,94.62
2023-05-05T23:35:48.775Z,94.08
2023-05-05T23:38:17.314Z,94.18
2023-05-05T23:40:45.716Z,94.14
2023-05-05T23:43:14.219Z,93.88
2023-05-05T23:45:42.620Z,94.43
2023-05-05T23:48:10.987Z,94.19
2023-05-05T23:50:41.393Z,94.56
2023-05-05T23:53:10.671Z,94.19
2023-05-05T23:55:39.120Z,94.72
2023-05-05T23:58:07.543Z,94.80
